Time;durP1;ratioP1;P1;durP2;ratioP2;P2;SDS_P1;SDS_P2;PMS_P1;PMS_P2;Temp;Humidity;BMP_temperature;BMP_pressure;BME280_temperature;BME280_humidity;BME280_pressure;Samples;Min_cycle;Max_cycle;Signal;HPM_P1;HPM_P2
2021/03/12 00:02:16;;;;;;;1.67;0.75;;;6.30;99.90;;;;;;5031920;28;20308;-39
2021/03/12 00:04:44;;;;;;;2.72;0.70;;;6.30;99.90;;;;;;5031608;28;20243;-38
2021/03/12 00:07:11;;;;;;;0.45;0.45;;;6.30;99.90;;;;;;5031230;28;20290;-40
2021/03/12 00:09:38;;;;;;;1.60;0.70;;;6.30;99.90;;;;;;5031785;28;20643;-40
2021/03/12 00:12:08;;;;;;;0.80;0.47;;;6.20;99.90;;;;;;5031770;28;20212;-39
2021/03/12 00:14:34;;;;;;;1.52;0.65;;;6.20;99.90;;;;;;5031899;28;20259;-39
2021/03/12 00:17:02;;;;;;;1.05;0.70;;;6.20;99.90;;;;;;5031908;28;20299;-40
2021/03/12 00:19:29;;;;;;;1.65;0.95;;;6.20;99.90;;;;;;5031791;28;20254;-40
2021/03/12 00:21:57;;;;;;;2.03;0.70;;;6.20;99.90;;;;;;5031560;28;20212;-40
2021/03/12 00:24:24;;;;;;;1.25;0.50;;;6.20;99.90;;;;;;5031570;28;20411;-40
2021/03/12 00:26:51;;;;;;;3.83;0.82;;;6.20;99.90;;;;;;5031987;28;20312;-40
2021/03/12 00:29:18;;;;;;;1.95;1.30;;;6.20;99.90;;;;;;5031723;28;20212;-41
2021/03/12 00:31:45;;;;;;;0.50;0.45;;;6.20;99.90;;;;;;5032833;28;20240;-40
2021/03/12 00:34:12;;;;;;;2.78;1.13;;;6.20;99.90;;;;;;5031690;28;20208;-40
2021/03/12 00:36:39;;;;;;;0.70;0.70;;;6.30;99.90;;;;;;5031554;28;20738;-41
2021/03/12 00:39:07;;;;;;;0.70;0.70;;;6.30;99.90;;;;;;5031486;28;20234;-41
2021/03/12 00:41:34;;;;;;;1.98;0.95;;;6.20;99.90;;;;;;5031286;28;20268;-39
2021/03/12 00:44:01;;;;;;;0.68;0.57;;;6.20;99.90;;;;;;5031343;28;20224;-40
2021/03/12 00:46:28;;;;;;;1.85;0.60;;;6.20;99.90;;;;;;5031254;28;20558;-40
2021/03/12 00:48:55;;;;;;;2.55;1.08;;;6.20;99.90;;;;;;5031211;28;20213;-40
2021/03/12 00:51:22;;;;;;;2.33;0.90;;;6.20;99.90;;;;;;5031146;28;20263;-39
2021/03/12 00:53:49;;;;;;;1.33;0.60;;;6.20;99.90;;;;;;5031355;28;20205;-40
2021/03/12 00:56:17;;;;;;;2.70;0.75;;;6.20;99.90;;;;;;5031170;28;20244;-40
2021/03/12 00:58:44;;;;;;;0.50;0.40;;;6.20;99.90;;;;;;5031064;28;20296;-40
2021/03/12 01:01:11;;;;;;;2.22;0.65;;;6.20;99.90;;;;;;5031240;28;20213;-40
2021/03/12 01:03:38;;;;;;;0.50;0.50;;;6.20;99.90;;;;;;5030896;28;20268;-39
2021/03/12 01:06:05;;;;;;;1.02;0.50;;;6.20;99.90;;;;;;5030868;28;20336;-40
2021/03/12 01:08:32;;;;;;;1.05;0.80;;;6.20;99.90;;;;;;5031210;28;20295;-40
2021/03/12 01:10:59;;;;;;;3.85;1.25;;;6.10;99.90;;;;;;5031172;28;20219;-40
2021/03/12 01:13:27;;;;;;;1.95;0.65;;;6.10;99.90;;;;;;5031221;28;20292;-40
2021/03/12 01:15:54;;;;;;;2.90;0.80;;;6.00;99.90;;;;;;5031290;28;20209;-40
2021/03/12 01:18:21;;;;;;;1.23;0.50;;;6.00;99.90;;;;;;5031927;28;20659;-40
2021/03/12 01:20:48;;;;;;;1.23;0.95;;;6.00;99.90;;;;;;5034725;28;20690;-40
2021/03/12 01:23:15;;;;;;;1.02;0.85;;;6.00;99.90;;;;;;5034563;28;20232;-40
2021/03/12 01:25:44;;;;;;;1.08;0.65;;;6.00;99.90;;;;;;5034658;28;20300;-40
2021/03/12 01:28:11;;;;;;;2.10;1.13;;;6.10;99.90;;;;;;5034501;28;20236;-40
2021/03/12 01:30:41;;;;;;;4.03;1.45;;;6.10;99.90;;;;;;5034551;28;20205;-40
2021/03/12 01:33:08;;;;;;;2.33;0.95;;;6.10;99.90;;;;;;5033971;28;20219;-40
2021/03/12 01:35:36;;;;;;;2.42;0.93;;;6.10;99.90;;;;;;5034559;28;20205;-40
2021/03/12 01:38:04;;;;;;;3.63;1.10;;;6.10;99.90;;;;;;5034370;28;20287;-40
2021/03/12 01:40:33;;;;;;;1.65;0.93;;;6.10;99.90;;;;;;5034374;28;20299;-40
2021/03/12 01:43:02;;;;;;;5.38;1.50;;;6.00;99.90;;;;;;5034193;28;20209;-41
2021/03/12 01:45:31;;;;;;;3.30;1.00;;;6.00;99.90;;;;;;5034044;28;20220;-41
2021/03/12 01:48:00;;;;;;;4.70;1.75;;;6.00;99.90;;;;;;5034070;28;20680;-40
2021/03/12 01:50:27;;;;;;;2.80;1.13;;;6.00;99.90;;;;;;5034038;28;20213;-40
2021/03/12 01:52:55;;;;;;;2.45;0.82;;;6.10;99.90;;;;;;5033829;28;20240;-41
2021/03/12 01:55:28;;;;;;;4.47;1.02;;;6.10;99.90;;;;;;5033951;28;20205;-41
2021/03/12 01:57:55;;;;;;;1.38;0.90;;;6.10;99.90;;;;;;5033838;28;20233;-40
2021/03/12 02:00:23;;;;;;;1.63;0.90;;;6.10;99.90;;;;;;5033768;28;20208;-40
2021/03/12 02:02:50;;;;;;;1.23;0.70;;;6.10;99.90;;;;;;5034040;28;20208;-41
2021/03/12 02:05:18;;;;;;;1.02;0.82;;;6.20;99.90;;;;;;5033967;28;20229;-41
2021/03/12 02:07:46;;;;;;;1.77;0.70;;;6.20;99.90;;;;;;5033560;28;20771;-41
2021/03/12 02:10:15;;;;;;;2.22;0.88;;;6.20;99.90;;;;;;5033799;28;20291;-40
2021/03/12 02:12:48;;;;;;;1.38;0.75;;;6.20;99.90;;;;;;5033745;28;20216;-40
2021/03/12 02:15:18;;;;;;;0.80;0.60;;;6.20;99.90;;;;;;5033872;28;20288;-41
2021/03/12 02:17:53;;;;;;;2.17;0.45;;;6.20;99.90;;;;;;5033683;28;20219;-42
2021/03/12 02:20:31;;;;;;;0.88;0.60;;;6.10;99.90;;;;;;5033603;28;20310;-40
2021/03/12 02:23:11;;;;;;;0.50;0.43;;;6.10;99.90;;;;;;5033477;28;20322;-41
2021/03/12 02:25:43;;;;;;;1.15;0.93;;;6.10;99.90;;;;;;5033762;28;20292;-41
2021/03/12 02:28:12;;;;;;;1.95;0.60;;;6.10;99.90;;;;;;5033418;28;20702;-40
2021/03/12 02:30:40;;;;;;;0.40;0.40;;;6.00;99.90;;;;;;5033460;28;20563;-40
2021/03/12 02:33:08;;;;;;;1.08;0.52;;;6.00;99.90;;;;;;5033342;28;20212;-40
2021/03/12 02:35:36;;;;;;;1.85;1.08;;;6.00;99.90;;;;;;5033291;28;20212;-40
2021/03/12 02:38:04;;;;;;;1.85;0.65;;;5.90;99.90;;;;;;5033383;28;20212;-40
2021/03/12 02:40:32;;;;;;;1.45;0.50;;;5.90;99.90;;;;;;5033390;28;20734;-41
2021/03/12 02:42:59;;;;;;;1.42;0.55;;;5.90;99.90;;;;;;5033152;28;20213;-41
2021/03/12 02:45:27;;;;;;;0.57;0.55;;;5.90;99.90;;;;;;5032990;28;20578;-40
2021/03/12 02:47:55;;;;;;;1.35;0.90;;;5.90;99.90;;;;;;5032952;28;20295;-40
2021/03/12 02:50:23;;;;;;;1.42;1.10;;;5.90;99.90;;;;;;5033084;28;20663;-40
2021/03/12 02:52:51;;;;;;;0.90;0.50;;;5.90;99.90;;;;;;5032925;28;20255;-40
2021/03/12 02:55:19;;;;;;;1.48;0.60;;;5.90;99.90;;;;;;5032835;28;20734;-40
2021/03/12 02:57:47;;;;;;;0.55;0.52;;;5.90;99.90;;;;;;5032919;28;20255;-40
2021/03/12 03:00:15;;;;;;;1.50;0.50;;;5.80;99.90;;;;;;5032985;28;20581;-40
2021/03/12 03:02:44;;;;;;;0.77;0.70;;;5.80;99.90;;;;;;5032724;28;20574;-40
2021/03/12 03:05:12;;;;;;;2.38;0.80;;;5.80;99.90;;;;;;5032281;28;20718;-41
2021/03/12 03:07:40;;;;;;;0.73;0.70;;;5.70;99.90;;;;;;5032410;28;20762;-40
2021/03/12 03:10:10;;;;;;;1.55;0.80;;;5.70;99.90;;;;;;5032689;28;20300;-40
2021/03/12 03:12:38;;;;;;;3.10;0.80;;;5.70;99.90;;;;;;5032614;28;20575;-40
2021/03/12 03:15:06;;;;;;;3.00;1.00;;;5.60;99.90;;;;;;5032543;28;20315;-40
2021/03/12 03:17:37;;;;;;;2.13;0.75;;;5.70;99.90;;;;;;5032390;28;20678;-40
2021/03/12 03:20:09;;;;;;;1.75;0.70;;;5.70;99.90;;;;;;5032586;28;20223;-40
2021/03/12 03:22:38;;;;;;;0.63;0.50;;;5.70;99.90;;;;;;5032562;28;20220;-40
2021/03/12 03:25:07;;;;;;;1.42;0.80;;;5.70;99.90;;;;;;5032238;28;20229;-40
2021/03/12 03:27:34;;;;;;;0.60;0.60;;;5.70;99.90;;;;;;5031399;28;20291;-40
2021/03/12 03:30:01;;;;;;;0.50;0.50;;;5.70;99.90;;;;;;5031577;28;20216;-40
2021/03/12 03:32:28;;;;;;;1.42;0.93;;;5.80;99.90;;;;;;5031473;28;20311;-40
2021/03/12 03:34:55;;;;;;;5.38;0.85;;;5.80;99.90;;;;;;5031050;28;20294;-40
2021/03/12 03:37:23;;;;;;;3.28;1.25;;;5.80;99.90;;;;;;5031821;28;20262;-40
2021/03/12 03:39:49;;;;;;;2.28;0.90;;;5.80;99.90;;;;;;5032078;28;20212;-40
2021/03/12 03:42:18;;;;;;;1.13;0.70;;;5.80;99.90;;;;;;5031630;28;20208;-40
2021/03/12 03:44:46;;;;;;;2.15;0.90;;;5.80;99.90;;;;;;5032127;28;20324;-39
2021/03/12 03:47:14;;;;;;;0.60;0.60;;;5.80;99.90;;;;;;5031994;28;20209;-39
2021/03/12 03:49:43;;;;;;;0.50;0.50;;;5.80;99.90;;;;;;5031962;28;20266;-39
2021/03/12 03:52:11;;;;;;;1.38;0.85;;;5.70;99.90;;;;;;5031887;28;20209;-40
2021/03/12 03:54:42;;;;;;;1.33;0.80;;;5.70;99.90;;;;;;5031697;28;20204;-39
2021/03/12 03:57:10;;;;;;;3.75;0.90;;;5.70;99.90;;;;;;5032055;28;20296;-40
2021/03/12 03:59:39;;;;;;;2.15;0.65;;;5.70;99.90;;;;;;5031613;28;20253;-40
2021/03/12 04:02:09;;;;;;;0.93;0.70;;;5.70;99.90;;;;;;5031914;28;20637;-40
2021/03/12 04:04:37;;;;;;;1.90;0.80;;;5.70;99.90;;;;;;5031772;28;20224;-40
2021/03/12 04:07:06;;;;;;;1.67;0.80;;;5.60;99.90;;;;;;5031616;28;20291;-41
2021/03/12 04:09:35;;;;;;;2.28;0.70;;;5.60;99.90;;;;;;5031999;28;20240;-41
2021/03/12 04:12:03;;;;;;;1.75;0.63;;;5.60;99.90;;;;;;5031996;28;20294;-41
2021/03/12 04:14:42;;;;;;;1.33;0.63;;;5.60;99.90;;;;;;5031903;28;20208;-40
2021/03/12 04:17:10;;;;;;;2.00;0.68;;;5.60;99.90;;;;;;5031753;28;20208;-41
2021/03/12 04:19:38;;;;;;;1.08;0.70;;;5.50;99.90;;;;;;5031633;28;20201;-42
2021/03/12 04:22:07;;;;;;;0.90;0.80;;;5.50;99.90;;;;;;5031659;28;20664;-40
2021/03/12 04:24:34;;;;;;;4.65;0.70;;;5.50;99.90;;;;;;5031763;28;20652;-41
2021/03/12 04:27:02;;;;;;;2.00;0.68;;;5.50;99.90;;;;;;5031746;28;20204;-39
2021/03/12 04:29:30;;;;;;;1.73;0.82;;;5.50;99.90;;;;;;5031527;28;20651;-39
2021/03/12 04:31:58;;;;;;;2.65;0.70;;;5.50;99.90;;;;;;5031570;28;20650;-40
2021/03/12 04:34:25;;;;;;;0.60;0.50;;;5.50;99.90;;;;;;5031418;28;20299;-39
2021/03/12 04:36:53;;;;;;;1.52;0.98;;;5.60;99.90;;;;;;5031485;28;20315;-39
2021/03/12 04:39:21;;;;;;;0.70;0.70;;;5.60;99.90;;;;;;5031607;28;20307;-39
2021/03/12 04:41:49;;;;;;;1.08;0.70;;;5.60;99.90;;;;;;5031323;28;20593;-40
2021/03/12 04:44:18;;;;;;;1.05;0.90;;;5.70;99.90;;;;;;5031254;28;20312;-39
2021/03/12 04:46:46;;;;;;;2.15;0.95;;;5.60;99.90;;;;;;5031358;28;20258;-40
2021/03/12 04:49:14;;;;;;;2.45;1.15;;;5.60;99.90;;;;;;5031352;28;20263;-39
2021/03/12 04:51:44;;;;;;;0.98;0.70;;;5.60;99.90;;;;;;5031279;28;20224;-39
2021/03/12 04:54:13;;;;;;;1.02;0.77;;;5.60;99.90;;;;;;5033770;28;20299;-38
2021/03/12 04:56:40;;;;;;;0.73;0.65;;;5.60;99.90;;;;;;5035158;28;20243;-38
2021/03/12 04:59:08;;;;;;;4.40;0.90;;;5.60;99.90;;;;;;5035261;28;20252;-39
2021/03/12 05:01:38;;;;;;;4.15;1.77;;;5.60;99.90;;;;;;5034846;28;20291;-40
2021/03/12 05:04:07;;;;;;;2.40;1.50;;;5.50;99.90;;;;;;5034506;28;20322;-41
2021/03/12 05:06:39;;;;;;;0.80;0.77;;;5.50;99.90;;;;;;5034646;28;20248;-40
2021/03/12 05:09:06;;;;;;;3.08;1.63;;;5.50;99.90;;;;;;5035078;28;20231;-40
2021/03/12 05:11:33;;;;;;;2.78;1.80;;;5.50;99.90;;;;;;5034879;28;20699;-40
2021/03/12 05:14:00;;;;;;;3.25;2.15;;;5.40;99.90;;;;;;5034741;28;20300;-40
2021/03/12 05:16:27;;;;;;;3.22;1.75;;;5.40;99.90;;;;;;5035049;28;20312;-40
2021/03/12 05:18:55;;;;;;;1.73;1.40;;;5.40;99.90;;;;;;5034872;28;20229;-38
2021/03/12 05:21:22;;;;;;;2.53;1.40;;;5.30;99.90;;;;;;5034669;28;20278;-40
2021/03/12 05:23:49;;;;;;;1.80;1.38;;;5.40;99.90;;;;;;5034645;28;20620;-40
2021/03/12 05:26:16;;;;;;;1.52;0.80;;;5.40;99.90;;;;;;5035989;28;20231;-39
2021/03/12 05:28:43;;;;;;;0.98;0.98;;;5.40;99.90;;;;;;5034254;28;20329;-39
2021/03/12 05:31:10;;;;;;;2.35;1.38;;;5.50;99.90;;;;;;5034766;28;20262;-39
2021/03/12 05:33:37;;;;;;;3.33;0.85;;;5.50;99.90;;;;;;5034710;28;20308;-39
2021/03/12 05:36:05;;;;;;;2.15;1.10;;;5.50;99.90;;;;;;5034391;28;20248;-39
2021/03/12 05:38:32;;;;;;;1.08;0.90;;;5.60;99.90;;;;;;5034528;28;20303;-39
2021/03/12 05:41:02;;;;;;;3.25;0.93;;;5.70;99.90;;;;;;5034135;28;20248;-39
2021/03/12 05:43:29;;;;;;;3.17;1.02;;;5.70;99.90;;;;;;5034412;28;20208;-39
2021/03/12 05:46:00;;;;;;;2.05;1.02;;;5.80;99.90;;;;;;5034135;28;20691;-39
2021/03/12 05:48:27;;;;;;;1.48;0.90;;;5.90;99.90;;;;;;5034137;28;20213;-40
2021/03/12 05:50:58;;;;;;;1.38;0.80;;;5.90;99.90;;;;;;5034198;28;20213;-40
2021/03/12 05:53:27;;;;;;;1.55;0.77;;;5.90;99.90;;;;;;5033762;28;20216;-38
2021/03/12 05:55:56;;;;;;;1.63;1.15;;;5.90;99.90;;;;;;5034194;28;20207;-39
2021/03/12 05:58:23;;;;;;;1.80;0.70;;;5.90;99.90;;;;;;5034088;28;20307;-39
2021/03/12 06:00:50;;;;;;;1.38;0.75;;;5.90;99.90;;;;;;5034097;28;20216;-39
2021/03/12 06:03:17;;;;;;;1.67;0.80;;;5.80;99.90;;;;;;5033967;28;20702;-39
2021/03/12 06:05:47;;;;;;;0.95;0.70;;;5.80;99.90;;;;;;5033064;28;20237;-39
2021/03/12 06:08:14;;;;;;;2.47;0.80;;;5.70;99.90;;;;;;5033646;28;20690;-39
2021/03/12 06:10:42;;;;;;;4.90;1.33;;;5.70;99.90;;;;;;5033788;28;20205;-39
2021/03/12 06:13:09;;;;;;;2.00;0.95;;;5.60;99.90;;;;;;5033662;28;20219;-39
2021/03/12 06:15:37;;;;;;;1.52;0.88;;;5.60;99.90;;;;;;5033903;28;20291;-40
2021/03/12 06:18:15;;;;;;;1.40;1.00;;;5.60;99.90;;;;;;5033518;28;20303;-40
2021/03/12 06:20:43;;;;;;;2.72;1.15;;;5.60;99.90;;;;;;5032063;28;20706;-40
2021/03/12 06:23:10;;;;;;;2.88;0.90;;;5.70;99.90;;;;;;5033329;28;20209;-40
2021/03/12 06:25:37;;;;;;;5.93;1.10;;;5.60;99.90;;;;;;5033329;28;20283;-40
2021/03/12 06:28:18;;;;;;;2.50;1.50;;;5.70;99.90;;;;;;5033350;28;20308;-40
2021/03/12 06:30:46;;;;;;;3.22;0.90;;;5.70;99.90;;;;;;5033214;28;20254;-39
2021/03/12 06:33:28;;;;;;;2.05;1.10;;;5.80;99.90;;;;;;5033146;28;20208;-40
2021/03/12 06:35:56;;;;;;;2.13;1.10;;;5.90;99.90;;;;;;5033119;28;20300;-39
2021/03/12 06:38:23;;;;;;;1.58;1.00;;;6.00;99.90;;;;;;5033141;28;20213;-39
2021/03/12 06:40:50;;;;;;;2.28;1.67;;;6.00;99.90;;;;;;5032947;28;20371;-39
2021/03/12 06:43:19;;;;;;;1.27;1.02;;;6.00;99.90;;;;;;5032988;28;20251;-40
2021/03/12 06:45:57;;;;;;;3.00;1.10;;;6.10;99.90;;;;;;5032685;28;20662;-39
2021/03/12 06:48:25;;;;;;;1.60;1.08;;;6.20;99.90;;;;;;5032774;28;20212;-39
2021/03/12 06:50:53;;;;;;;2.20;1.08;;;6.30;99.90;;;;;;5032645;28;20560;-40
2021/03/12 06:53:26;;;;;;;2.42;0.90;;;6.40;99.90;;;;;;5032705;28;20208;-39
2021/03/12 06:55:54;;;;;;;4.13;0.90;;;6.40;99.90;;;;;;5032351;28;20209;-39
2021/03/12 06:58:22;;;;;;;1.95;1.00;;;6.40;99.90;;;;;;5032665;28;20552;-40
2021/03/12 07:00:49;;;;;;;3.50;0.80;;;6.30;99.90;;;;;;5032313;28;20244;-40
2021/03/12 07:03:24;;;;;;;3.00;1.17;;;6.30;99.90;;;;;;5032582;28;20296;-40
2021/03/12 07:06:03;;;;;;;2.30;0.93;;;6.20;99.90;;;;;;5032142;28;20244;-40
2021/03/12 07:08:36;;;;;;;1.50;0.82;;;6.10;99.90;;;;;;5032663;28;20296;-40
2021/03/12 07:11:17;;;;;;;3.75;1.00;;;6.10;99.90;;;;;;5032360;28;20745;-40
2021/03/12 07:13:45;;;;;;;5.18;1.35;;;6.10;99.90;;;;;;5032354;28;20367;-40
2021/03/12 07:16:12;;;;;;;2.65;1.00;;;6.20;99.90;;;;;;5031336;28;20299;-40
2021/03/12 07:18:40;;;;;;;3.90;0.98;;;6.20;99.90;;;;;;5032158;28;20212;-40
2021/03/12 07:21:08;;;;;;;2.00;0.98;;;6.30;99.90;;;;;;5032073;28;20208;-39
2021/03/12 07:23:41;;;;;;;2.50;1.30;;;6.30;99.90;;;;;;5032003;28;20311;-39
2021/03/12 07:26:11;;;;;;;3.85;1.20;;;6.40;99.90;;;;;;5032063;28;20232;-40
2021/03/12 07:28:40;;;;;;;3.33;1.15;;;6.40;99.90;;;;;;5032229;28;20315;-40
2021/03/12 07:31:10;;;;;;;3.90;1.00;;;6.50;99.90;;;;;;5032135;28;20312;-41
2021/03/12 07:33:41;;;;;;;3.22;0.85;;;6.50;99.90;;;;;;5032574;28;20675;-41
2021/03/12 07:36:10;;;;;;;2.30;1.20;;;6.50;99.90;;;;;;5032169;28;20209;-40
2021/03/12 07:38:39;;;;;;;3.08;1.20;;;6.60;99.90;;;;;;5031795;28;20296;-41
2021/03/12 07:41:07;;;;;;;2.00;0.98;;;6.60;99.90;;;;;;5031828;28;20284;-41
2021/03/12 07:43:36;;;;;;;1.65;1.10;;;6.60;99.90;;;;;;5031860;28;20632;-40
2021/03/12 07:46:06;;;;;;;5.45;1.45;;;6.70;99.90;;;;;;5031573;28;20224;-39
2021/03/12 07:48:34;;;;;;;2.67;0.80;;;6.70;99.90;;;;;;5031745;28;20213;-40
2021/03/12 07:51:09;;;;;;;1.45;1.08;;;6.80;99.90;;;;;;5034376;28;20312;-40
2021/03/12 07:53:50;;;;;;;5.72;1.38;;;6.80;99.90;;;;;;5031764;28;20299;-40
2021/03/12 07:56:18;;;;;;;7.30;1.42;;;6.90;99.90;;;;;;5031570;28;20210;-40
2021/03/12 07:58:56;;;;;;;3.22;1.42;;;7.00;99.90;;;;;;5031415;28;20248;-41
2021/03/12 08:01:25;;;;;;;3.35;1.13;;;7.10;99.90;;;;;;5031691;28;20240;-40
2021/03/12 08:03:54;;;;;;;6.22;1.38;;;7.10;99.90;;;;;;5031105;28;20208;-40
2021/03/12 08:06:36;;;;;;;3.30;0.98;;;7.10;99.90;;;;;;5031343;28;20310;-40
2021/03/12 08:09:34;;;;;;;3.67;1.05;;;7.20;99.80;;;;;;5031370;28;20694;-40
2021/03/12 08:12:03;;;;;;;3.08;1.15;;;7.20;99.90;;;;;;5031680;28;20216;-41
2021/03/12 08:14:32;;;;;;;3.17;1.10;;;7.20;99.90;;;;;;5031423;28;20235;-40
2021/03/12 08:17:18;;;;;;;3.35;1.13;;;7.20;99.90;;;;;;5031044;28;20213;-43
2021/03/12 08:19:49;;;;;;;4.53;2.10;;;7.30;99.90;;;;;;5031622;28;20204;-41
2021/03/12 08:22:44;;;;;;;7.88;1.27;;;7.40;99.90;;;;;;5031554;28;20212;-41
2021/03/12 08:25:47;;;;;;;4.43;1.65;;;7.40;99.40;;;;;;5031351;28;20254;-42
2021/03/12 08:28:31;;;;;;;2.00;0.88;;;7.50;99.50;;;;;;4992414;28;20205;-41
2021/03/12 08:31:00;;;;;;;2.40;1.45;;;7.50;99.00;;;;;;4993670;28;20578;-42
2021/03/12 08:33:35;;;;;;;2.13;1.10;;;7.50;99.30;;;;;;5018160;28;20288;-45
2021/03/12 08:36:05;;;;;;;2.22;1.33;;;7.50;99.00;;;;;;5035207;28;20212;-42
2021/03/12 08:38:39;;;;;;;3.50;1.00;;;7.60;99.40;;;;;;5035475;28;20236;-42
2021/03/12 08:41:25;;;;;;;4.65;1.42;;;7.70;99.30;;;;;;5035269;28;20574;-42
2021/03/12 08:43:54;;;;;;;6.32;1.30;;;7.80;99.00;;;;;;5035100;28;20212;-43
2021/03/12 08:46:25;;;;;;;3.03;1.10;;;7.90;98.90;;;;;;5034907;28;20332;-41
2021/03/12 08:48:55;;;;;;;2.38;1.35;;;7.90;98.70;;;;;;5035095;28;20212;-42
2021/03/12 08:51:24;;;;;;;3.72;1.90;;;7.90;98.70;;;;;;5035164;28;20242;-40
2021/03/12 08:53:58;;;;;;;1.42;1.00;;;8.00;98.80;;;;;;5034955;28;20311;-40
2021/03/12 08:56:31;;;;;;;3.33;1.67;;;8.10;98.50;;;;;;5035051;28;20212;-40
2021/03/12 08:58:59;;;;;;;3.70;1.20;;;8.10;98.40;;;;;;5034818;28;20208;-40
2021/03/12 09:01:28;;;;;;;2.22;1.35;;;8.20;98.40;;;;;;5034654;28;20327;-40
2021/03/12 09:03:56;;;;;;;2.05;1.08;;;8.30;98.30;;;;;;5034842;28;20244;-40
2021/03/12 09:06:27;;;;;;;1.58;0.98;;;8.40;98.10;;;;;;5034366;28;20407;-40
2021/03/12 09:09:06;;;;;;;2.10;1.27;;;8.50;97.90;;;;;;5034676;28;20224;-40
2021/03/12 09:11:34;;;;;;;2.70;1.13;;;8.60;97.70;;;;;;5034455;28;20299;-41
2021/03/12 09:14:02;;;;;;;1.40;0.90;;;8.60;97.80;;;;;;5034658;28;20291;-40
2021/03/12 09:16:31;;;;;;;4.45;1.60;;;8.70;97.60;;;;;;5034652;28;20609;-40
2021/03/12 09:19:02;;;;;;;4.53;1.33;;;8.70;97.70;;;;;;5034428;28;20221;-40
2021/03/12 09:21:31;;;;;;;3.42;1.58;;;8.70;97.50;;;;;;5034331;28;20251;-40
2021/03/12 09:23:59;;;;;;;2.55;1.00;;;8.90;97.30;;;;;;5034702;28;20232;-41
2021/03/12 09:26:28;;;;;;;3.40;1.67;;;9.10;96.90;;;;;;5034473;28;20268;-41
2021/03/12 09:28:57;;;;;;;3.05;1.50;;;9.20;96.50;;;;;;5034336;28;20314;-41
2021/03/12 09:31:29;;;;;;;3.15;1.25;;;9.40;96.00;;;;;;5034462;28;20267;-41
2021/03/12 09:33:58;;;;;;;3.15;1.63;;;9.30;95.60;;;;;;5034238;28;20288;-41
2021/03/12 09:36:29;;;;;;;2.25;1.25;;;9.40;95.40;;;;;;5034054;28;20213;-41
2021/03/12 09:39:06;;;;;;;3.83;1.30;;;9.50;95.30;;;;;;5033853;28;20209;-41
2021/03/12 09:41:37;;;;;;;2.08;1.15;;;9.60;94.50;;;;;;5034272;28;20216;-42
2021/03/12 09:44:07;;;;;;;3.20;1.50;;;9.50;94.10;;;;;;5034048;28;20208;-40
2021/03/12 09:46:36;;;;;;;1.80;1.05;;;9.50;94.40;;;;;;5033857;28;20247;-41
2021/03/12 09:49:15;;;;;;;3.00;1.30;;;9.60;94.10;;;;;;5033844;28;20291;-41
2021/03/12 09:51:44;;;;;;;2.33;1.20;;;9.60;94.50;;;;;;5034088;28;20223;-41
2021/03/12 09:54:13;;;;;;;1.13;1.02;;;9.80;94.20;;;;;;5033045;28;20652;-40
2021/03/12 09:56:44;;;;;;;3.15;1.35;;;9.80;93.70;;;;;;5033516;28;20212;-40
2021/03/12 09:59:12;;;;;;;1.92;1.27;;;9.80;93.40;;;;;;5033205;28;20208;-41
2021/03/12 10:01:40;;;;;;;2.90;1.35;;;9.90;93.40;;;;;;5033354;28;20273;-40
2021/03/12 10:04:28;;;;;;;2.67;1.10;;;10.00;93.20;;;;;;5033538;28;20304;-40
2021/03/12 10:07:00;;;;;;;3.05;1.20;;;9.90;92.20;;;;;;5033223;28;20241;-40
2021/03/12 10:09:29;;;;;;;1.83;0.80;;;9.70;92.10;;;;;;5033374;28;20223;-40
2021/03/12 10:11:57;;;;;;;1.27;1.17;;;9.60;92.60;;;;;;5033120;28;20298;-39
2021/03/12 10:14:26;;;;;;;3.50;1.58;;;9.60;92.70;;;;;;5033461;28;20209;-40
2021/03/12 10:17:12;;;;;;;1.25;1.02;;;9.70;92.40;;;;;;5033547;28;20236;-40
2021/03/12 10:19:54;;;;;;;2.08;0.93;;;9.90;91.80;;;;;;5026984;28;20738;-40
2021/03/12 10:22:29;;;;;;;3.83;1.30;;;10.00;91.20;;;;;;5033047;28;20212;-40
2021/03/12 10:25:00;;;;;;;2.15;1.00;;;10.00;91.20;;;;;;5033344;28;20286;-40
2021/03/12 10:27:31;;;;;;;4.38;1.45;;;9.90;90.80;;;;;;5033082;28;20212;-40
2021/03/12 10:29:58;;;;;;;1.50;1.00;;;9.90;90.70;;;;;;5032823;28;20601;-40
2021/03/12 10:32:26;;;;;;;1.10;0.98;;;9.90;90.80;;;;;;5032564;28;20209;-40
2021/03/12 10:34:56;;;;;;;2.85;1.27;;;9.90;90.90;;;;;;5033223;28;20282;-40
2021/03/12 10:37:32;;;;;;;4.28;1.50;;;9.90;90.70;;;;;;5033143;28;20255;-42
2021/03/12 10:40:06;;;;;;;3.15;1.10;;;10.00;90.60;;;;;;5032960;28;20291;-41
2021/03/12 10:42:33;;;;;;;1.92;1.05;;;10.10;90.50;;;;;;5032735;28;20208;-41
2021/03/12 10:45:01;;;;;;;2.67;1.42;;;10.30;90.40;;;;;;5032729;28;20363;-41
2021/03/12 10:47:29;;;;;;;3.83;1.50;;;10.30;90.20;;;;;;5032814;28;20205;-41
2021/03/12 10:49:56;;;;;;;3.00;0.95;;;10.40;90.10;;;;;;5032361;28;20239;-41
2021/03/12 10:52:27;;;;;;;3.70;1.60;;;10.40;90.10;;;;;;5031890;28;20216;-41
2021/03/12 10:54:56;;;;;;;3.75;1.50;;;10.40;89.50;;;;;;5032564;28;20351;-40
2021/03/12 10:57:40;;;;;;;1.58;0.80;;;10.40;90.20;;;;;;5032602;28;20287;-40
2021/03/12 11:00:16;;;;;;;1.58;0.98;;;10.40;87.90;;;;;;5032421;28;20686;-41
2021/03/12 11:02:43;;;;;;;3.90;2.00;;;10.20;88.50;;;;;;5032783;28;20211;-41
2021/03/12 11:05:13;;;;;;;2.15;1.10;;;10.00;90.10;;;;;;5032096;28;20717;-41
2021/03/12 11:07:44;;;;;;;4.20;1.77;;;9.80;90.00;;;;;;5032153;28;20585;-40
2021/03/12 11:10:12;;;;;;;4.25;1.40;;;9.70;90.40;;;;;;5032171;28;20616;-41
2021/03/12 11:12:42;;;;;;;2.75;1.50;;;9.80;90.40;;;;;;5032439;28;20247;-41
2021/03/12 11:15:11;;;;;;;7.13;1.40;;;9.90;90.00;;;;;;5032344;28;20205;-41
2021/03/12 11:17:41;;;;;;;2.90;1.48;;;9.80;89.50;;;;;;5032272;28;20292;-41
2021/03/12 11:20:12;;;;;;;3.50;1.65;;;9.80;89.70;;;;;;5032037;28;20215;-41
2021/03/12 11:22:40;;;;;;;3.63;1.25;;;10.00;89.20;;;;;;5031679;28;20255;-40
2021/03/12 11:25:08;;;;;;;6.30;1.40;;;10.20;89.40;;;;;;5032021;28;20225;-40
2021/03/12 11:27:35;;;;;;;2.95;1.27;;;10.40;87.70;;;;;;5031656;28;20651;-40
2021/03/12 11:30:08;;;;;;;1.50;1.02;;;10.40;87.20;;;;;;5032129;28;20205;-40
2021/03/12 11:32:35;;;;;;;2.20;1.00;;;10.40;84.90;;;;;;5031928;28;20243;-40
2021/03/12 11:35:03;;;;;;;1.25;0.90;;;10.50;84.70;;;;;;5031757;28;20209;-40
2021/03/12 11:40:01;;;;;;;1.67;0.90;;;10.40;83.90;;;;;;5010718;28;20232;-39
2021/03/12 11:42:28;;;;;;;1.65;1.10;;;10.40;83.80;;;;;;5011857;28;20290;-39
2021/03/12 11:44:55;;;;;;;3.30;1.20;;;10.40;84.20;;;;;;5011932;28;20629;-40
2021/03/12 11:47:23;;;;;;;2.75;1.00;;;10.30;83.80;;;;;;5011751;28;20285;-39
2021/03/12 11:49:50;;;;;;;3.67;0.90;;;10.20;84.30;;;;;;5011691;28;20492;-39
2021/03/12 11:52:17;;;;;;;1.67;0.90;;;10.30;83.90;;;;;;5011645;28;20296;-39
2021/03/12 11:54:44;;;;;;;1.23;0.88;;;10.20;83.90;;;;;;5011764;28;20316;-40
2021/03/12 11:57:11;;;;;;;3.00;1.10;;;10.10;84.40;;;;;;5011655;28;20652;-40
2021/03/12 11:59:38;;;;;;;1.60;0.80;;;10.10;84.70;;;;;;5011690;28;20300;-38
2021/03/12 12:02:06;;;;;;;2.13;1.05;;;10.00;85.20;;;;;;5011031;28;20647;-40
2021/03/12 12:04:34;;;;;;;1.73;1.13;;;10.00;85.60;;;;;;5011833;28;20236;-40
2021/03/12 12:07:01;;;;;;;1.77;1.00;;;10.10;85.70;;;;;;5011391;28;20205;-40
2021/03/12 12:09:28;;;;;;;3.65;1.00;;;10.20;85.80;;;;;;5011316;28;20209;-40
2021/03/12 12:11:55;;;;;;;3.03;1.10;;;10.50;84.80;;;;;;5011602;28;20232;-41
2021/03/12 12:14:22;;;;;;;3.50;0.85;;;10.70;84.30;;;;;;5011505;28;20677;-41
2021/03/12 12:16:49;;;;;;;3.28;1.00;;;10.90;84.00;;;;;;5011555;28;20228;-41
2021/03/12 12:19:17;;;;;;;2.15;0.90;;;11.20;83.20;;;;;;5011487;28;20332;-41
2021/03/12 12:21:45;;;;;;;1.13;1.02;;;11.30;81.90;;;;;;5011669;28;20228;-41
2021/03/12 12:24:12;;;;;;;1.35;1.25;;;11.40;81.20;;;;;;5011604;28;20252;-41
2021/03/12 12:26:40;;;;;;;2.55;1.08;;;11.40;81.10;;;;;;5011366;28;20241;-42
2021/03/12 12:29:09;;;;;;;1.13;1.02;;;11.50;81.20;;;;;;5011455;28;20304;-42
2021/03/12 12:31:37;;;;;;;1.40;0.93;;;11.60;80.40;;;;;;5011288;28;20252;-42
2021/03/12 12:34:05;;;;;;;3.67;1.20;;;11.70;80.20;;;;;;5010964;28;20249;-42
2021/03/12 12:36:33;;;;;;;3.88;0.95;;;11.80;80.00;;;;;;5011290;28;20295;-42
2021/03/12 12:39:05;;;;;;;2.83;0.80;;;11.80;78.40;;;;;;5011122;28;20648;-41
2021/03/12 12:41:32;;;;;;;3.65;1.25;;;11.60;79.20;;;;;;5011510;28;20307;-41
2021/03/12 12:43:59;;;;;;;3.60;1.77;;;11.60;79.40;;;;;;5011169;28;20236;-41
2021/03/12 12:46:26;;;;;;;1.38;0.95;;;11.70;79.20;;;;;;5011329;28;20233;-41
2021/03/12 12:48:53;;;;;;;2.35;1.10;;;11.90;78.40;;;;;;5011402;28;20551;-41
2021/03/12 12:51:20;;;;;;;2.25;0.80;;;11.90;77.60;;;;;;5011495;28;20363;-40
2021/03/12 12:53:47;;;;;;;2.08;0.95;;;11.80;77.80;;;;;;5011134;28;20296;-39
2021/03/12 12:56:15;;;;;;;2.45;1.08;;;11.70;78.20;;;;;;5011101;28;20208;-40
2021/03/12 12:58:42;;;;;;;5.10;1.17;;;11.50;78.20;;;;;;5011254;28;20536;-41
2021/03/12 13:01:10;;;;;;;2.95;1.33;;;11.30;78.40;;;;;;5011538;28;20271;-40
2021/03/12 13:03:37;;;;;;;1.92;1.00;;;11.10;79.30;;;;;;5010619;28;20212;-40
2021/03/12 13:06:04;;;;;;;4.05;1.23;;;11.10;79.80;;;;;;5010964;28;20233;-41
2021/03/12 13:08:32;;;;;;;2.85;1.15;;;11.40;79.70;;;;;;5011271;28;20388;-40
2021/03/12 13:10:59;;;;;;;3.28;0.90;;;11.80;79.10;;;;;;5010945;28;20225;-40